createdAt,value
2018-12-27T00:00:32.761Z,16.07
2018-12-27T00:02:54.958Z,14.83
2018-12-27T00:05:24.446Z,14.33
2018-12-27T00:07:57.642Z,14.70
2018-12-27T00:10:32.090Z,15.83
2018-12-27T00:13:03.534Z,15.17
2018-12-27T00:15:36.673Z,14.63
2018-12-27T00:18:08.018Z,15.40
2018-12-27T00:20:42.406Z,14.50
2018-12-27T00:23:10.846Z,16.47
2018-12-27T00:25:44.806Z,13.93
2018-12-27T00:28:13.250Z,13.13
2018-12-27T00:30:46.980Z,14.93
2018-12-27T00:33:15.551Z,16.50
2018-12-27T00:35:47.082Z,15.17
2018-12-27T00:38:17.298Z,16.13
2018-12-27T00:40:45.890Z,13.37
2018-12-27T00:43:16.053Z,14.93
2018-12-27T00:45:48.947Z,16.77
2018-12-27T00:48:26.182Z,15.00
2018-12-27T00:51:00.735Z,15.17
2018-12-27T00:53:33.590Z,15.83
2018-12-27T00:56:03.499Z,18.00
2018-12-27T00:58:32.114Z,17.47
2018-12-27T01:01:03.626Z,15.90
2018-12-27T01:03:35.262Z,15.30
2018-12-27T01:06:13.166Z,16.70
2018-12-27T01:09:08.607Z,17.47
2018-12-27T01:11:16.899Z,17.20
2018-12-27T01:13:48.250Z,20.47
2018-12-27T01:16:27.202Z,20.03
2018-12-27T01:19:03.435Z,16.77
2018-12-27T01:21:34.970Z,13.80
2018-12-27T01:24:03.599Z,15.93
2018-12-27T01:26:38.597Z,16.17
2018-12-27T01:29:13.002Z,14.53
2018-12-27T01:31:50.742Z,13.73
2018-12-27T01:34:28.282Z,13.00
2018-12-27T01:36:59.574Z,17.03
2018-12-27T01:39:29.815Z,15.43
2018-12-27T01:42:01.322Z,14.30
2018-12-27T01:44:29.885Z,16.37
2018-12-27T01:47:02.230Z,15.07
2018-12-27T01:49:36.685Z,15.40
2018-12-27T01:52:12.719Z,16.73
2018-12-27T01:54:49.067Z,16.83
2018-12-27T01:57:17.694Z,14.60
2018-12-27T01:59:46.270Z,15.63
2018-12-27T02:02:14.879Z,14.63
2018-12-27T02:04:43.450Z,15.87
2018-12-27T02:07:13.485Z,13.43
2018-12-27T02:09:46.678Z,13.63
2018-12-27T02:12:20.938Z,15.10
2018-12-27T02:14:49.510Z,14.37
2018-12-27T02:17:18.109Z,16.47
2018-12-27T02:19:46.686Z,16.67
2018-12-27T02:22:21.118Z,16.10
2018-12-27T02:24:52.363Z,16.43
2018-12-27T02:27:30.034Z,16.73
2018-12-27T02:30:02.666Z,15.90
2018-12-27T02:32:52.606Z,15.30
2018-12-27T02:35:28.614Z,16.33
2018-12-27T02:37:59.925Z,16.77
2018-12-27T02:40:32.784Z,16.07
2018-12-27T02:43:01.353Z,17.87
2018-12-27T02:45:32.640Z,17.30
2018-12-27T02:48:02.868Z,17.63
2018-12-27T02:50:34.344Z,20.70
2018-12-27T02:53:04.571Z,19.43
2018-12-27T02:55:36.058Z,20.67
2018-12-27T02:58:05.151Z,20.47
2018-12-27T03:00:36.408Z,21.90
2018-12-27T03:03:04.981Z,22.27
2018-12-27T03:05:33.758Z,20.70
2018-12-27T03:08:02.339Z,19.53
2018-12-27T03:10:33.574Z,19.57
2018-12-27T03:13:05.069Z,21.57
2018-12-27T03:15:36.398Z,24.40
2018-12-27T03:18:12.024Z,22.70
2018-12-27T03:20:42.269Z,25.17
2018-12-27T03:23:10.840Z,26.87
2018-12-27T03:25:42.874Z,23.67
2018-12-27T03:28:20.025Z,23.20
2018-12-27T03:30:51.583Z,26.73
2018-12-27T03:33:20.156Z,25.53
2018-12-27T03:35:48.730Z,23.20
2018-12-27T03:38:17.501Z,26.23
2018-12-27T03:40:50.502Z,25.77
2018-12-27T03:43:21.801Z,25.87
2018-12-27T03:45:50.378Z,26.40
2018-12-27T03:48:29.427Z,25.03
2018-12-27T03:51:03.570Z,23.17
2018-12-27T03:53:32.182Z,21.77
2018-12-27T03:56:12.061Z,22.97
2018-12-27T03:58:43.086Z,25.07
2018-12-27T04:01:14.642Z,22.67
2018-12-27T04:03:43.212Z,24.47
2018-12-27T04:06:14.511Z,23.67
2018-12-27T04:08:51.960Z,24.40
2018-12-27T04:11:25.749Z,22.03
2018-12-27T04:13:57.621Z,25.77
2018-12-27T04:16:26.127Z,24.07
2018-12-27T04:18:57.220Z,24.53
2018-12-27T04:21:31.468Z,24.30
2018-12-27T04:23:59.886Z,26.03
2018-12-27T04:26:28.937Z,24.13
2018-12-27T04:29:03.058Z,22.00
2018-12-27T04:31:31.826Z,26.20
2018-12-27T04:34:09.523Z,27.30
2018-12-27T04:36:36.477Z,24.93
2018-12-27T04:39:06.847Z,26.97
2018-12-27T04:41:35.793Z,28.10
2018-12-27T04:44:07.870Z,25.37
2018-12-27T04:46:37.981Z,26.00
2018-12-27T04:49:16.485Z,28.03
2018-12-27T04:51:44.909Z,24.13
2018-12-27T04:54:16.335Z,25.27
2018-12-27T04:56:47.744Z,27.37
2018-12-27T04:59:22.205Z,29.63
2018-12-27T05:01:55.236Z,26.13
2018-12-27T05:04:32.329Z,25.70
2018-12-27T05:07:02.430Z,27.60
2018-12-27T05:09:30.837Z,27.90
2018-12-27T05:12:02.207Z,29.73
2018-12-27T05:14:30.662Z,27.27
2018-12-27T05:17:01.808Z,26.20
2018-12-27T05:19:35.451Z,26.27
2018-12-27T05:22:04.842Z,26.83
2018-12-27T05:24:36.032Z,27.37
2018-12-27T05:27:09.918Z,29.03
2018-12-27T05:29:38.329Z,28.30
2018-12-27T05:32:09.453Z,29.23
2018-12-27T05:34:37.914Z,33.33
2018-12-27T05:37:12.062Z,28.27
2018-12-27T05:39:42.918Z,26.93
2018-12-27T05:42:11.339Z,27.93
2018-12-27T05:44:42.471Z,25.57
2018-12-27T05:47:12.632Z,28.37
2018-12-27T05:49:43.968Z,29.13
2018-12-27T05:52:12.402Z,28.87
2018-12-27T05:54:49.365Z,26.80
2018-12-27T05:57:25.798Z,26.37
2018-12-27T06:00:00.209Z,25.83
2018-12-27T06:02:34.379Z,24.97
2018-12-27T06:05:02.830Z,26.23
2018-12-27T06:07:35.789Z,26.50
2018-12-27T06:10:06.729Z,27.13
2018-12-27T06:12:35.177Z,26.13
2018-12-27T06:15:03.660Z,29.47
2018-12-27T06:17:36.872Z,28.07
2018-12-27T06:20:11.451Z,27.30
2018-12-27T06:22:42.561Z,26.80
2018-12-27T06:25:13.710Z,27.23
2018-12-27T06:27:42.129Z,28.70
2018-12-27T06:30:19.403Z,27.23
2018-12-27T06:32:53.737Z,26.13
2018-12-27T06:35:24.578Z,30.83
2018-12-27T06:37:55.769Z,26.67
2018-12-27T06:40:27.563Z,27.07
2018-12-27T06:42:56.021Z,27.50
2018-12-27T06:45:27.225Z,28.20
2018-12-27T06:47:58.561Z,28.27
2018-12-27T06:50:29.709Z,31.03
2018-12-27T06:53:01.288Z,30.70
2018-12-27T06:55:32.597Z,29.53
2018-12-27T06:58:05.301Z,52.30
2018-12-27T07:00:36.658Z,66.33
2018-12-27T07:03:14.172Z,47.03
2018-12-27T07:05:44.250Z,41.93
2018-12-27T07:08:14.558Z,83.13
2018-12-27T07:10:45.687Z,40.40
2018-12-27T07:13:15.260Z,26.10
2018-12-27T07:15:45.365Z,28.83
2018-12-27T07:18:19.342Z,28.57
2018-12-27T07:20:51.023Z,25.17
2018-12-27T07:23:25.069Z,26.30
2018-12-27T07:25:56.292Z,28.30
2018-12-27T07:28:27.750Z,25.00
2018-12-27T07:30:57.807Z,25.17
2018-12-27T07:33:34.580Z,28.83
2018-12-27T07:36:03.001Z,27.60
2018-12-27T07:38:31.422Z,30.23
2018-12-27T07:41:05.831Z,26.20
2018-12-27T07:43:34.253Z,25.63
2018-12-27T07:46:02.668Z,29.30
2018-12-27T07:48:34.037Z,23.17
2018-12-27T07:51:05.186Z,24.47
2018-12-27T07:53:36.436Z,23.87
2018-12-27T07:56:13.308Z,24.33
2018-12-27T07:58:42.621Z,20.20
2018-12-27T08:01:11.881Z,25.03
2018-12-27T08:03:46.042Z,23.97
2018-12-27T08:06:16.103Z,25.03
2018-12-27T08:08:51.031Z,24.30
2018-12-27T08:11:25.675Z,24.20
2018-12-27T08:13:57.174Z,23.47
2018-12-27T08:16:25.585Z,24.93
2018-12-27T08:18:54.010Z,27.27
2018-12-27T08:21:22.449Z,26.23
2018-12-27T08:23:56.342Z,27.27
2018-12-27T08:26:27.843Z,25.37
2018-12-27T08:28:57.935Z,24.50
2018-12-27T08:31:37.915Z,23.90
2018-12-27T08:34:06.528Z,25.60
2018-12-27T08:36:37.844Z,22.30
2018-12-27T08:39:20.739Z,25.77
2018-12-27T08:41:50.798Z,26.60
2018-12-27T08:44:19.214Z,27.23
2018-12-27T08:46:56.688Z,23.00
2018-12-27T08:49:33.521Z,25.23
2018-12-27T08:52:04.975Z,21.63
2018-12-27T08:54:39.542Z,24.63
2018-12-27T08:57:07.987Z,22.63
2018-12-27T08:59:39.142Z,22.10
2018-12-27T09:02:07.603Z,23.33
2018-12-27T09:04:40.609Z,20.43
2018-12-27T09:07:17.145Z,23.90
2018-12-27T09:09:45.606Z,21.40
2018-12-27T09:12:16.772Z,20.90
2018-12-27T09:15:00.354Z,21.90
2018-12-27T09:17:33.529Z,18.80
2018-12-27T09:20:01.951Z,19.90
2018-12-27T09:22:33.322Z,20.27
2018-12-27T09:25:04.371Z,19.77
2018-12-27T09:27:32.786Z,22.13
2018-12-27T09:30:02.875Z,21.20
2018-12-27T09:32:32.563Z,20.23
2018-12-27T09:35:06.817Z,25.90
2018-12-27T09:37:39.283Z,27.13
2018-12-27T09:40:19.606Z,22.60
2018-12-27T09:42:45.745Z,27.63
2018-12-27T09:45:23.266Z,23.83
2018-12-27T09:48:00.448Z,23.93
2018-12-27T09:50:36.611Z,32.07
2018-12-27T09:53:08.950Z,24.70
2018-12-27T09:55:43.005Z,30.67
2018-12-27T09:58:11.746Z,27.67
2018-12-27T10:00:41.847Z,24.33
2018-12-27T10:03:14.629Z,54.37
2018-12-27T10:05:45.835Z,24.97
2018-12-27T10:08:14.363Z,28.30
2018-12-27T10:10:42.775Z,24.07
2018-12-27T10:13:12.833Z,22.93
2018-12-27T10:15:41.438Z,26.93
2018-12-27T10:18:12.644Z,27.17
2018-12-27T10:20:45.405Z,28.30
2018-12-27T10:23:21.114Z,29.17
2018-12-27T10:25:49.537Z,30.63
2018-12-27T10:28:26.338Z,26.60
2018-12-27T10:30:59.868Z,26.50
2018-12-27T10:33:28.026Z,24.77
2018-12-27T10:36:02.131Z,29.17
2018-12-27T10:38:36.455Z,26.60
2018-12-27T10:41:13.414Z,23.87
2018-12-27T10:43:43.478Z,29.37
2018-12-27T10:46:14.831Z,30.90
2018-12-27T10:48:43.283Z,30.00
2018-12-27T10:51:11.734Z,34.43
2018-12-27T10:53:40.158Z,27.73
2018-12-27T10:56:09.576Z,27.70
2018-12-27T10:58:37.998Z,23.63
2018-12-27T11:01:09.694Z,27.80
2018-12-27T11:03:38.889Z,25.47
2018-12-27T11:06:10.361Z,24.13
2018-12-27T11:08:46.340Z,22.97
2018-12-27T11:11:20.246Z,23.23
2018-12-27T11:13:48.685Z,22.90
2018-12-27T11:16:22.987Z,25.77
2018-12-27T11:18:51.754Z,24.63
2018-12-27T11:21:23.065Z,28.07
2018-12-27T11:23:51.502Z,26.67
2018-12-27T11:26:19.917Z,27.50
2018-12-27T11:28:48.432Z,22.60
2018-12-27T11:31:19.874Z,26.73
2018-12-27T11:33:49.946Z,24.90
2018-12-27T11:36:23.869Z,28.97
2018-12-27T11:39:03.168Z,27.57
2018-12-27T11:41:31.581Z,29.47
2018-12-27T11:44:04.600Z,30.83
2018-12-27T11:46:35.928Z,29.60
2018-12-27T11:49:04.366Z,29.17
2018-12-27T11:51:33.107Z,28.93
2018-12-27T11:54:05.965Z,28.13
2018-12-27T11:56:41.669Z,23.77
2018-12-27T11:59:14.066Z,27.83
2018-12-27T12:01:47.098Z,30.50
2018-12-27T12:04:18.473Z,29.83
2018-12-27T12:06:46.923Z,26.40
2018-12-27T12:09:20.949Z,22.87
2018-12-27T12:11:51.029Z,20.20
2018-12-27T12:14:21.125Z,22.57
2018-12-27T12:16:49.561Z,22.67
2018-12-27T12:19:18.005Z,19.40
2018-12-27T12:21:46.951Z,26.40
2018-12-27T12:24:34.601Z,29.93
2018-12-27T12:27:03.057Z,33.43
2018-12-27T12:29:31.501Z,28.20
2018-12-27T12:31:59.991Z,28.23
2018-12-27T12:34:28.462Z,25.43
2018-12-27T12:37:00.383Z,25.93
2018-12-27T12:39:31.329Z,24.23
2018-12-27T12:41:59.781Z,22.80
2018-12-27T12:44:30.413Z,23.63
2018-12-27T12:47:01.494Z,21.10
2018-12-27T12:49:32.493Z,18.37
2018-12-27T12:52:01.222Z,17.53
2018-12-27T12:54:29.625Z,18.13
2018-12-27T12:57:04.054Z,16.60
2018-12-27T12:59:33.265Z,18.27
2018-12-27T13:02:02.726Z,17.33
2018-12-27T13:04:33.939Z,17.47
2018-12-27T13:07:02.383Z,17.20
2018-12-27T13:09:30.812Z,18.33
2018-12-27T13:12:04.922Z,21.70
2018-12-27T13:14:33.346Z,30.63
2018-12-27T13:17:01.785Z,36.90
2018-12-27T13:19:30.210Z,35.87
2018-12-27T13:22:03.455Z,28.20
2018-12-27T13:24:37.583Z,18.73
2018-12-27T13:27:07.658Z,14.00
2018-12-27T13:29:37.702Z,9.17
2018-12-27T13:32:06.151Z,11.10
2018-12-27T13:34:41.843Z,14.27
2018-12-27T13:37:14.418Z,13.27
2018-12-27T13:39:42.844Z,18.63
2018-12-27T13:42:11.296Z,18.40
2018-12-27T13:44:45.934Z,16.53
2018-12-27T13:47:16.027Z,12.87
2018-12-27T13:49:47.675Z,11.43
2018-12-27T13:52:16.682Z,36.77
2018-12-27T13:54:45.102Z,20.67
2018-12-27T13:57:13.554Z,14.90
2018-12-27T13:59:47.714Z,17.10
2018-12-27T14:02:19.108Z,11.57
2018-12-27T14:04:49.162Z,12.73
2018-12-27T14:07:21.639Z,10.70
2018-12-27T14:09:53.287Z,12.27
2018-12-27T14:12:21.739Z,14.40
2018-12-27T14:14:50.182Z,21.97
2018-12-27T14:17:18.605Z,16.47
2018-12-27T14:19:52.522Z,12.33
2018-12-27T14:22:20.966Z,12.97
2018-12-27T14:24:57.683Z,12.37
2018-12-27T14:27:22.833Z,9.87
2018-12-27T14:29:54.258Z,9.90
2018-12-27T14:32:24.309Z,8.00
2018-12-27T14:34:55.806Z,8.33
2018-12-27T14:37:26.540Z,6.80
2018-12-27T14:39:57.397Z,9.30
2018-12-27T14:42:28.626Z,14.10
2018-12-27T14:45:01.385Z,13.37
2018-12-27T14:47:32.493Z,41.90
2018-12-27T14:50:02.561Z,42.33
2018-12-27T14:52:37.091Z,38.20
2018-12-27T14:55:08.523Z,43.40
2018-12-27T14:57:36.938Z,56.47
2018-12-27T15:00:08.369Z,87.60
2018-12-27T15:02:38.421Z,102.80
2018-12-27T15:05:07.115Z,95.00
2018-12-27T15:08:18.319Z,74.37
2018-12-27T15:10:52.823Z,31.97
2018-12-27T15:13:24.202Z,18.97
2018-12-27T15:15:52.653Z,18.07
2018-12-27T15:18:21.063Z,16.97
2018-12-27T15:20:49.518Z,17.70
2018-12-27T15:23:17.935Z,11.70
2018-12-27T15:25:46.386Z,16.97
2018-12-27T15:28:20.568Z,12.77
2018-12-27T15:30:51.705Z,14.20
2018-12-27T15:33:20.131Z,12.87
2018-12-27T15:35:50.217Z,8.33
2018-12-27T15:38:20.266Z,8.47
2018-12-27T15:40:48.709Z,7.80
2018-12-27T15:43:19.862Z,7.67
2018-12-27T15:45:52.634Z,8.33
2018-12-27T15:48:24.218Z,8.53
2018-12-27T15:50:52.624Z,17.50
2018-12-27T15:53:21.071Z,15.90
2018-12-27T15:55:51.167Z,18.90
2018-12-27T15:58:22.542Z,17.37
2018-12-27T16:00:54.134Z,12.27
2018-12-27T16:03:25.501Z,10.60
2018-12-27T16:05:56.852Z,11.80
2018-12-27T16:08:28.136Z,12.77
2018-12-27T16:10:58.195Z,11.47
2018-12-27T16:13:28.277Z,18.90
2018-12-27T16:15:58.359Z,14.83
2018-12-27T16:18:32.489Z,24.47
2018-12-27T16:21:00.942Z,19.23
2018-12-27T16:23:29.358Z,14.27
2018-12-27T16:25:57.799Z,15.20
2018-12-27T16:28:28.206Z,16.33
2018-12-27T16:31:00.073Z,13.33
2018-12-27T16:33:31.338Z,15.00
2018-12-27T16:36:01.426Z,15.80
2018-12-27T16:38:35.484Z,15.03
2018-12-27T16:41:06.836Z,16.73
2018-12-27T16:43:38.362Z,16.53
2018-12-27T16:46:14.261Z,18.10
2018-12-27T16:48:42.677Z,18.83
2018-12-27T16:51:11.128Z,19.90
2018-12-27T16:53:39.574Z,28.60
2018-12-27T16:56:10.690Z,14.50
2018-12-27T16:58:41.886Z,13.13
2018-12-27T17:01:12.958Z,12.57
2018-12-27T17:03:43.045Z,12.80
2018-12-27T17:06:14.708Z,8.90
2018-12-27T17:08:50.838Z,13.50
2018-12-27T17:11:22.217Z,19.40
2018-12-27T17:13:55.238Z,19.03
2018-12-27T17:16:23.703Z,20.63
2018-12-27T17:18:52.123Z,25.60
2018-12-27T17:21:20.550Z,35.03
2018-12-27T17:23:48.999Z,34.37
2018-12-27T17:26:23.318Z,23.50
2018-12-27T17:28:51.758Z,25.43
2018-12-27T17:31:20.187Z,20.03
2018-12-27T17:33:51.191Z,23.83
2018-12-27T17:36:21.262Z,18.17
2018-12-27T17:38:54.438Z,20.73
2018-12-27T17:41:25.890Z,23.83
2018-12-27T17:43:54.365Z,26.33
2018-12-27T17:46:25.521Z,24.50
2018-12-27T17:49:09.006Z,22.67
2018-12-27T17:51:37.439Z,21.30
2018-12-27T17:54:11.993Z,25.77
2018-12-27T17:56:44.306Z,23.47
2018-12-27T17:59:20.679Z,22.27
2018-12-27T18:01:51.766Z,24.80
2018-12-27T18:04:20.205Z,23.27
2018-12-27T18:06:51.342Z,26.27
2018-12-27T18:09:19.761Z,26.43
2018-12-27T18:11:50.883Z,30.47
2018-12-27T18:14:21.969Z,26.37
2018-12-27T18:16:53.429Z,23.20
2018-12-27T18:19:21.849Z,25.50
2018-12-27T18:21:50.309Z,24.37
2018-12-27T18:24:18.730Z,26.83
2018-12-27T18:26:53.390Z,26.77
2018-12-27T18:29:21.818Z,25.67
2018-12-27T18:31:56.925Z,28.60
2018-12-27T18:34:27.146Z,27.20
2018-12-27T18:36:58.239Z,27.27
2018-12-27T18:39:28.318Z,26.07
2018-12-27T18:41:56.751Z,24.77
2018-12-27T18:44:26.375Z,28.30
2018-12-27T18:46:57.746Z,30.27
2018-12-27T18:49:26.173Z,25.97
2018-12-27T18:51:55.151Z,30.37
2018-12-27T18:54:23.843Z,47.73
2018-12-27T18:56:52.285Z,59.43
2018-12-27T18:59:22.341Z,47.77
2018-12-27T19:01:50.790Z,37.00
2018-12-27T19:04:20.882Z,27.73
2018-12-27T19:06:55.353Z,34.17
2018-12-27T19:09:36.068Z,33.57
2018-12-27T19:12:36.658Z,52.53
2018-12-27T19:15:07.346Z,33.70
2018-12-27T19:17:38.774Z,40.10
2018-12-27T19:20:12.623Z,41.40
2018-12-27T19:22:45.749Z,41.83
2018-12-27T19:25:21.684Z,37.67
2018-12-27T19:27:54.406Z,40.67
2018-12-27T19:30:30.478Z,34.90
2018-12-27T19:33:01.614Z,35.80
2018-12-27T19:35:35.546Z,37.17
2018-12-27T19:38:03.991Z,44.00
2018-12-27T19:40:32.411Z,41.10
2018-12-27T19:43:02.769Z,30.53
2018-12-27T19:45:32.458Z,28.60
2018-12-27T19:48:05.564Z,29.70
2018-12-27T19:50:38.954Z,29.57
2018-12-27T19:53:07.397Z,29.87
2018-12-27T19:55:36.224Z,33.07
2018-12-27T19:58:13.754Z,36.00
2018-12-27T20:00:42.210Z,31.20
2018-12-27T20:03:13.295Z,41.77
2018-12-27T20:05:46.318Z,39.83
2018-12-27T20:08:14.763Z,38.73
2018-12-27T20:10:43.173Z,33.67
2018-12-27T20:13:13.238Z,31.07
2018-12-27T20:15:41.637Z,34.97
2018-12-27T20:18:10.065Z,33.03
2018-12-27T20:20:41.447Z,23.03
2018-12-27T20:23:12.817Z,25.13
2018-12-27T20:25:52.925Z,20.87
2018-12-27T20:28:21.383Z,21.63
2018-12-27T20:30:49.826Z,29.43
2018-12-27T20:33:22.631Z,30.10
2018-12-27T20:35:51.077Z,23.47
2018-12-27T20:38:19.506Z,22.47
2018-12-27T20:40:47.926Z,19.60
2018-12-27T20:43:16.369Z,20.60
2018-12-27T20:45:50.373Z,19.03
2018-12-27T20:48:30.518Z,20.67
2018-12-27T20:51:01.932Z,23.17
2018-12-27T20:53:36.535Z,22.90
2018-12-27T20:56:13.523Z,21.33
2018-12-27T20:58:43.606Z,25.97
2018-12-27T21:01:15.060Z,23.97
2018-12-27T21:03:46.547Z,24.07
2018-12-27T21:06:20.595Z,33.57
2018-12-27T21:08:53.634Z,29.43
2018-12-27T21:11:27.703Z,24.90
2018-12-27T21:13:56.149Z,25.27
2018-12-27T21:16:24.581Z,23.23
2018-12-27T21:18:54.685Z,22.73
2018-12-27T21:21:23.198Z,23.57
2018-12-27T21:23:57.001Z,24.90
2018-12-27T21:26:31.755Z,27.00
2018-12-27T21:29:05.936Z,23.70
2018-12-27T21:31:35.155Z,23.87
2018-12-27T21:34:06.249Z,21.77
2018-12-27T21:36:34.713Z,23.27
2018-12-27T21:39:06.629Z,25.03
2018-12-27T21:41:35.057Z,26.17
2018-12-27T21:44:12.226Z,24.20
2018-12-27T21:46:46.154Z,25.37
2018-12-27T21:49:14.575Z,23.73
2018-12-27T21:51:47.330Z,24.37
2018-12-27T21:54:21.821Z,21.33
2018-12-27T21:56:56.089Z,21.67
2018-12-27T21:59:37.915Z,26.47
2018-12-27T22:02:10.961Z,31.53
2018-12-27T22:04:43.197Z,21.40
2018-12-27T22:07:13.209Z,19.27
2018-12-27T22:09:41.654Z,10.20
2018-12-27T22:12:18.654Z,12.87
2018-12-27T22:14:50.058Z,16.60
2018-12-27T22:17:21.155Z,15.13
2018-12-27T22:19:51.112Z,10.93
2018-12-27T22:22:22.273Z,10.53
2018-12-27T22:24:55.014Z,15.17
2018-12-27T22:27:28.963Z,15.27
2018-12-27T22:29:57.373Z,17.37
2018-12-27T22:32:32.817Z,18.33
2018-12-27T22:35:06.793Z,17.07
2018-12-27T22:37:35.252Z,14.80
2018-12-27T22:40:04.173Z,16.63
2018-12-27T22:42:37.671Z,15.90
2018-12-27T22:45:09.017Z,15.33
2018-12-27T22:47:39.057Z,13.03
2018-12-27T22:50:08.120Z,14.90
2018-12-27T22:52:36.870Z,14.20
2018-12-27T22:55:13.913Z,15.33
2018-12-27T22:57:48.489Z,15.63
2018-12-27T23:00:21.648Z,15.27
2018-12-27T23:02:53.026Z,16.57
2018-12-27T23:05:29.594Z,16.77
2018-12-27T23:08:00.765Z,19.27
2018-12-27T23:10:29.187Z,18.43
2018-12-27T23:13:01.599Z,17.97
2018-12-27T23:15:30.021Z,20.77
2018-12-27T23:18:01.128Z,20.03
2018-12-27T23:20:32.534Z,17.43
2018-12-27T23:23:02.671Z,18.67
2018-12-27T23:25:36.632Z,20.23
2018-12-27T23:28:09.342Z,20.20
2018-12-27T23:30:43.314Z,20.63
2018-12-27T23:33:20.920Z,21.10
2018-12-27T23:35:49.622Z,20.80
2018-12-27T23:38:19.643Z,21.77
2018-12-27T23:40:48.086Z,18.23
2018-12-27T23:43:16.544Z,22.67
2018-12-27T23:45:47.668Z,21.40
2018-12-27T23:48:16.109Z,21.53
2018-12-27T23:50:44.538Z,18.33
2018-12-27T23:53:12.982Z,17.80
2018-12-27T23:55:44.484Z,17.60
2018-12-27T23:58:17.466Z,18.90
